Time;durP1;ratioP1;P1;durP2;ratioP2;P2;SDS_P1;SDS_P2;PMS_P1;PMS_P2;Temp;Humidity;BMP_temperature;BMP_pressure;BME280_temperature;BME280_humidity;BME280_pressure;Samples;Min_cycle;Max_cycle;Signal;HPM_P1;HPM_P2
2021/01/22 13:23:54;;;;;;;4.53;4.15;;;;;;;;;;5090890;28;21131;-71
2021/01/22 13:26:20;;;;;;;6.32;4.15;;;;;;;;;;5090838;28;20180;-70
2021/01/22 13:28:46;;;;;;;7.30;4.07;;;;;;;;;;5090709;28;20271;-72
2021/01/22 13:31:12;;;;;;;5.32;4.70;;;;;;;;;;5090483;28;20172;-71
2021/01/22 13:33:38;;;;;;;4.40;4.00;;;;;;;;;;5090695;28;20176;-71
2021/01/22 13:36:04;;;;;;;4.15;3.85;;;;;;;;;;5090697;28;20168;-71
2021/01/22 13:38:30;;;;;;;4.68;4.13;;;;;;;;;;5090835;28;20168;-71
2021/01/22 13:40:56;;;;;;;12.30;3.95;;;;;;;;;;5090518;28;20228;-71
2021/01/22 13:43:22;;;;;;;4.35;4.00;;;;;;;;;;5090439;28;20196;-71
2021/01/22 13:45:49;;;;;;;4.28;4.05;;;;;;;;;;5090528;28;20168;-71
2021/01/22 13:48:15;;;;;;;8.93;3.90;;;;;;;;;;5090461;28;20191;-74
2021/01/22 13:50:41;;;;;;;4.35;4.00;;;;;;;;;;5089132;28;20626;-71
2021/01/22 13:53:07;;;;;;;6.32;3.92;;;;;;;;;;5090369;28;20168;-71
2021/01/22 13:55:33;;;;;;;4.20;3.85;;;;;;;;;;5089099;28;20645;-71
2021/01/22 13:58:18;;;;;;;7.07;3.40;;;;;;;;;;5090286;28;20298;-71
2021/01/22 14:00:44;;;;;;;4.00;3.60;;;;;;;;;;5088848;28;20607;-75
2021/01/22 14:03:10;;;;;;;10.02;3.38;;;;;;;;;;5090039;28;20672;-75
2021/01/22 14:05:36;;;;;;;4.43;3.40;;;;;;;;;;5089087;28;20176;-75
2021/01/22 14:08:02;;;;;;;3.78;3.50;;;;;;;;;;5090111;28;20168;-75
2021/01/22 14:10:28;;;;;;;2.97;2.78;;;;;;;;;;5090079;28;20168;-75
2021/01/22 14:12:55;;;;;;;3.50;2.83;;;;;;;;;;5089925;28;20519;-78
2021/01/22 14:15:21;;;;;;;3.15;2.95;;;;;;;;;;5089921;28;20171;-79
2021/01/22 14:17:47;;;;;;;8.00;3.72;;;;;;;;;;5089913;28;20167;-79
2021/01/22 14:20:13;;;;;;;7.32;3.20;;;;;;;;;;5089889;28;20176;-78
2021/01/22 14:22:40;;;;;;;3.58;3.30;;;;;;;;;;5088434;28;20233;-77
2021/01/22 14:25:06;;;;;;;3.13;2.92;;;;;;;;;;5089816;28;20160;-78
2021/01/22 14:27:32;;;;;;;3.03;2.83;;;;;;;;;;5090157;28;20163;-78
2021/01/22 14:29:58;;;;;;;3.83;2.78;;;;;;;;;;5089706;28;20465;-79
2021/01/22 14:32:24;;;;;;;3.90;3.60;;;;;;;;;;5089568;28;20175;-72
2021/01/22 14:34:50;;;;;;;3.20;3.00;;;;;;;;;;5078535;28;20172;-73
2021/01/22 14:37:17;;;;;;;3.13;2.92;;;;;;;;;;5076001;28;20180;-72
2021/01/22 14:39:42;;;;;;;5.00;3.20;;;;;;;;;;5076017;28;20176;-75
2021/01/22 14:42:09;;;;;;;3.03;2.83;;;;;;;;;;5075814;28;20196;-75
2021/01/22 14:44:35;;;;;;;2.78;2.58;;;;;;;;;;5074675;28;20259;-77
2021/01/22 14:47:01;;;;;;;4.95;2.70;;;;;;;;;;5075779;28;20199;-84
2021/01/22 14:49:31;;;;;;;2.75;2.60;;;;;;;;;;5075875;28;20175;-83
2021/01/22 14:51:57;;;;;;;3.75;2.80;;;;;;;;;;5074627;28;20208;-83
2021/01/22 14:54:23;;;;;;;4.35;2.58;;;;;;;;;;5074452;28;20227;-84
2021/01/22 14:56:49;;;;;;;3.22;2.85;;;;;;;;;;5075691;28;20165;-84
2021/01/22 14:59:15;;;;;;;3.40;3.10;;;;;;;;;;5074551;28;20183;-85
2021/01/22 15:01:41;;;;;;;3.60;3.13;;;;;;;;;;5075635;28;20183;-83
2021/01/22 15:04:07;;;;;;;6.78;3.05;;;;;;;;;;5075620;28;20172;-85
2021/01/22 15:06:33;;;;;;;3.50;3.20;;;;;;;;;;5075623;28;20591;-82
2021/01/22 15:08:59;;;;;;;3.25;3.05;;;;;;;;;;5075450;28;20165;-79
2021/01/22 15:11:25;;;;;;;6.18;3.38;;;;;;;;;;5075546;28;20618;-77
2021/01/22 15:13:51;;;;;;;2.92;2.83;;;;;;;;;;5075322;28;20200;-72
2021/01/22 15:16:17;;;;;;;3.25;3.05;;;;;;;;;;5074122;28;20199;-72
2021/01/22 15:18:43;;;;;;;3.28;2.97;;;;;;;;;;5075269;28;20168;-72
2021/01/22 15:21:09;;;;;;;3.67;3.20;;;;;;;;;;5075223;28;20172;-72
2021/01/22 15:23:35;;;;;;;2.85;2.65;;;;;;;;;;5075152;28;20220;-72
2021/01/22 15:26:01;;;;;;;3.97;2.97;;;;;;;;;;5075059;28;20548;-72
2021/01/22 15:28:27;;;;;;;4.47;3.63;;;;;;;;;;5075096;28;20182;-72
2021/01/22 15:30:54;;;;;;;3.92;3.47;;;;;;;;;;5075117;28;20250;-72
2021/01/22 15:33:20;;;;;;;4.35;3.42;;;;;;;;;;5074892;28;20218;-72
